This is the latest recevied weather packets stored in our database for station/object SQ7FJB-2. If no packets are shown the sender has not sent any weather packets the latest 1 day(s).
| Time | Temp. | Humidity | Pressure | Rain* | Wind** | Luminosity | Snow |
|---|---|---|---|---|---|---|---|
| 1778031316 | 7.78° C | 81% | 1004.5 hPa | 0 mm | 0 m/s | - | - |
| 1778030704 | 8.33° C | 80% | 1004.5 hPa | 0 mm | 0 m/s | - | - |
| 1778030091 | 7.78° C | 81% | 1004.5 hPa | 0 mm | 0 m/s | - | - |
| 1778029491 | 7.78° C | 81% | 1004.7 hPa | 0 mm | 0 m/s | - | - |
| 1778028890 | 7.78° C | 81% | 1004.7 hPa | 0 mm | 0 m/s | - | - |
| 1778028278 | 7.78° C | 80% | 1004.7 hPa | 0 mm | 0 m/s | - | - |
| 1778027679 | 7.78° C | 82% | 1004.5 hPa | 0 mm | 0 m/s | - | - |
| 1778027078 | 7.78° C | 80% | 1004.5 hPa | 0 mm | 0 m/s | - | - |
| 1778026478 | 8.33° C | 77% | 1004.6 hPa | 0 mm | 0 m/s | - | - |
| 1778025866 | 8.89° C | 76% | 1004.6 hPa | 0 mm | 0 m/s | - | - |
| 1778025266 | 8.89° C | 75% | 1004.7 hPa | 0 mm | 0 m/s | - | - |
| 1778024666 | 8.89° C | 74% | 1004.8 hPa | 0 mm | 0 m/s | - | - |
| 1778024065 | 8.89° C | 73% | 1004.8 hPa | 0 mm | 0 m/s | - | - |
| 1778023453 | 8.89° C | 72% | 1004.9 hPa | 0 mm | 0 m/s | - | - |
| 1778022853 | 9.44° C | 71% | 1005 hPa | 0 mm | 0 m/s | - | - |
| 1778022262 | 9.44° C | 72% | 1004.9 hPa | 0 mm | 0 m/s | - | - |
| 1778021641 | 9.44° C | 71% | 1005 hPa | 0 mm | 0 m/s | - | - |
| 1778021041 | 10° C | 71% | 1004.9 hPa | 0 mm | 0 m/s | - | - |
| 1778020428 | 10° C | 71% | 1004.9 hPa | 0 mm | 0 m/s | - | - |
| 1778019828 | 10° C | 68% | 1004.9 hPa | 0 mm | 0 m/s | - | - |
| 1778019216 | 10.56° C | 67% | 1004.9 hPa | 0 mm | 0 m/s | - | - |
| 1778018616 | 10.56° C | 65% | 1004.9 hPa | 0 mm | 0 m/s | - | - |
| 1778018004 | 11.67° C | 60% | 1005 hPa | 0 mm | 0 m/s | - | - |
| 1778017403 | 11.67° C | 62% | 1005 hPa | 0 mm | 0 m/s | - | - |
| 1778016791 | 12.22° C | 58% | 1005 hPa | 0 mm | 0 m/s | - | - |
* Rain latest hour (hover to see other rain measurements)
** Current wind speed in m/s (hover to see current wind gust speed)